sensor_id;sensor_type;location;lat;lon;timestamp;P1;durP1;ratioP1;P2;durP2;ratioP2
18249;SDS011;27980;52.126;5.572;2024-03-25T00:00:13;8.88;;;2.72;;
18249;SDS011;27980;52.126;5.572;2024-03-25T00:02:40;5.88;;;2.47;;
18249;SDS011;27980;52.126;5.572;2024-03-25T00:05:07;7.93;;;2.22;;
18249;SDS011;27980;52.126;5.572;2024-03-25T00:07:34;12.77;;;2.38;;
18249;SDS011;27980;52.126;5.572;2024-03-25T00:10:00;6.95;;;2.08;;
18249;SDS011;27980;52.126;5.572;2024-03-25T00:12:26;9.55;;;1.95;;
18249;SDS011;27980;52.126;5.572;2024-03-25T00:14:52;7.95;;;2.35;;
18249;SDS011;27980;52.126;5.572;2024-03-25T00:17:19;15.32;;;2.38;;
18249;SDS011;27980;52.126;5.572;2024-03-25T00:19:46;7.70;;;2.22;;
18249;SDS011;27980;52.126;5.572;2024-03-25T00:22:15;10.30;;;2.25;;
18249;SDS011;27980;52.126;5.572;2024-03-25T00:24:42;9.20;;;2.47;;
18249;SDS011;27980;52.126;5.572;2024-03-25T00:27:07;7.70;;;2.55;;
18249;SDS011;27980;52.126;5.572;2024-03-25T00:29:34;7.07;;;2.22;;
18249;SDS011;27980;52.126;5.572;2024-03-25T00:31:59;8.75;;;2.15;;
18249;SDS011;27980;52.126;5.572;2024-03-25T00:34:27;8.88;;;2.25;;
18249;SDS011;27980;52.126;5.572;2024-03-25T00:36:52;9.80;;;1.95;;
18249;SDS011;27980;52.126;5.572;2024-03-25T00:39:19;9.27;;;2.35;;
18249;SDS011;27980;52.126;5.572;2024-03-25T00:41:44;6.70;;;1.92;;
18249;SDS011;27980;52.126;5.572;2024-03-25T00:44:10;10.88;;;1.85;;
18249;SDS011;27980;52.126;5.572;2024-03-25T00:46:36;11.98;;;2.90;;
18249;SDS011;27980;52.126;5.572;2024-03-25T00:49:03;7.18;;;2.13;;
18249;SDS011;27980;52.126;5.572;2024-03-25T00:51:30;14.10;;;2.35;;
18249;SDS011;27980;52.126;5.572;2024-03-25T00:53:56;9.35;;;1.83;;
18249;SDS011;27980;52.126;5.572;2024-03-25T00:56:22;10.95;;;2.00;;
18249;SDS011;27980;52.126;5.572;2024-03-25T00:58:48;14.05;;;2.47;;
18249;SDS011;27980;52.126;5.572;2024-03-25T01:01:13;14.50;;;2.42;;
18249;SDS011;27980;52.126;5.572;2024-03-25T01:03:41;7.15;;;2.20;;
18249;SDS011;27980;52.126;5.572;2024-03-25T01:06:07;10.55;;;1.75;;
18249;SDS011;27980;52.126;5.572;2024-03-25T01:08:35;11.45;;;2.10;;
18249;SDS011;27980;52.126;5.572;2024-03-25T01:11:00;7.47;;;2.70;;
18249;SDS011;27980;52.126;5.572;2024-03-25T01:13:27;8.05;;;2.30;;
18249;SDS011;27980;52.126;5.572;2024-03-25T01:15:52;8.38;;;2.58;;
18249;SDS011;27980;52.126;5.572;2024-03-25T01:18:19;5.57;;;2.30;;
18249;SDS011;27980;52.126;5.572;2024-03-25T01:20:44;14.90;;;2.53;;
18249;SDS011;27980;52.126;5.572;2024-03-25T01:23:10;12.57;;;2.28;;
18249;SDS011;27980;52.126;5.572;2024-03-25T01:25:37;9.85;;;2.83;;
18249;SDS011;27980;52.126;5.572;2024-03-25T01:28:03;15.77;;;3.30;;
18249;SDS011;27980;52.126;5.572;2024-03-25T01:30:29;8.80;;;2.20;;
18249;SDS011;27980;52.126;5.572;2024-03-25T01:32:55;9.13;;;2.72;;
18249;SDS011;27980;52.126;5.572;2024-03-25T01:35:21;14.55;;;2.88;;
18249;SDS011;27980;52.126;5.572;2024-03-25T01:37:47;9.50;;;2.53;;
18249;SDS011;27980;52.126;5.572;2024-03-25T01:40:14;8.57;;;1.80;;
18249;SDS011;27980;52.126;5.572;2024-03-25T01:42:42;7.10;;;2.15;;
18249;SDS011;27980;52.126;5.572;2024-03-25T01:45:09;13.55;;;3.00;;
18249;SDS011;27980;52.126;5.572;2024-03-25T01:47:37;6.03;;;1.60;;
18249;SDS011;27980;52.126;5.572;2024-03-25T01:50:05;13.32;;;2.17;;
18249;SDS011;27980;52.126;5.572;2024-03-25T01:52:31;18.38;;;3.60;;
18249;SDS011;27980;52.126;5.572;2024-03-25T01:54:57;6.05;;;2.40;;
18249;SDS011;27980;52.126;5.572;2024-03-25T01:57:23;12.30;;;2.47;;
18249;SDS011;27980;52.126;5.572;2024-03-25T01:59:50;15.38;;;2.33;;
18249;SDS011;27980;52.126;5.572;2024-03-25T02:02:17;5.93;;;2.30;;
18249;SDS011;27980;52.126;5.572;2024-03-25T02:04:42;12.82;;;2.72;;
18249;SDS011;27980;52.126;5.572;2024-03-25T02:07:09;18.42;;;3.28;;
18249;SDS011;27980;52.126;5.572;2024-03-25T02:09:36;9.27;;;2.65;;
18249;SDS011;27980;52.126;5.572;2024-03-25T02:12:03;13.15;;;3.05;;
18249;SDS011;27980;52.126;5.572;2024-03-25T02:14:28;15.88;;;2.38;;
18249;SDS011;27980;52.126;5.572;2024-03-25T02:16:57;10.88;;;2.97;;
18249;SDS011;27980;52.126;5.572;2024-03-25T02:19:22;18.30;;;2.30;;
18249;SDS011;27980;52.126;5.572;2024-03-25T02:21:50;10.90;;;2.58;;
18249;SDS011;27980;52.126;5.572;2024-03-25T02:24:15;21.00;;;2.67;;
18249;SDS011;27980;52.126;5.572;2024-03-25T02:26:45;15.77;;;3.38;;
18249;SDS011;27980;52.126;5.572;2024-03-25T02:29:11;26.75;;;3.63;;
18249;SDS011;27980;52.126;5.572;2024-03-25T02:31:38;12.93;;;3.35;;
18249;SDS011;27980;52.126;5.572;2024-03-25T02:34:03;13.43;;;3.13;;
18249;SDS011;27980;52.126;5.572;2024-03-25T02:36:30;10.43;;;2.35;;
18249;SDS011;27980;52.126;5.572;2024-03-25T02:38:55;10.82;;;2.83;;
18249;SDS011;27980;52.126;5.572;2024-03-25T02:41:22;12.70;;;2.72;;
18249;SDS011;27980;52.126;5.572;2024-03-25T02:43:50;11.65;;;2.63;;
18249;SDS011;27980;52.126;5.572;2024-03-25T02:46:17;16.48;;;3.00;;
18249;SDS011;27980;52.126;5.572;2024-03-25T02:48:42;8.98;;;2.30;;
18249;SDS011;27980;52.126;5.572;2024-03-25T02:51:11;9.10;;;2.58;;
18249;SDS011;27980;52.126;5.572;2024-03-25T02:53:36;10.55;;;2.30;;
18249;SDS011;27980;52.126;5.572;2024-03-25T02:56:03;16.33;;;3.58;;
18249;SDS011;27980;52.126;5.572;2024-03-25T02:58:28;8.88;;;2.60;;
18249;SDS011;27980;52.126;5.572;2024-03-25T03:00:56;9.02;;;2.25;;
18249;SDS011;27980;52.126;5.572;2024-03-25T03:03:21;12.43;;;2.30;;
18249;SDS011;27980;52.126;5.572;2024-03-25T03:05:48;12.98;;;2.67;;
18249;SDS011;27980;52.126;5.572;2024-03-25T03:08:13;12.30;;;2.60;;
18249;SDS011;27980;52.126;5.572;2024-03-25T03:10:39;10.73;;;2.78;;
18249;SDS011;27980;52.126;5.572;2024-03-25T03:13:05;9.23;;;2.28;;
18249;SDS011;27980;52.126;5.572;2024-03-25T03:15:31;10.43;;;2.33;;
18249;SDS011;27980;52.126;5.572;2024-03-25T03:17:58;9.55;;;3.33;;
18249;SDS011;27980;52.126;5.572;2024-03-25T03:20:24;8.48;;;2.97;;
18249;SDS011;27980;52.126;5.572;2024-03-25T03:22:50;12.13;;;2.60;;
18249;SDS011;27980;52.126;5.572;2024-03-25T03:25:16;14.25;;;3.05;;
18249;SDS011;27980;52.126;5.572;2024-03-25T03:27:41;9.90;;;2.22;;
18249;SDS011;27980;52.126;5.572;2024-03-25T03:30:08;11.10;;;2.25;;
18249;SDS011;27980;52.126;5.572;2024-03-25T03:32:34;12.05;;;2.53;;
18249;SDS011;27980;52.126;5.572;2024-03-25T03:35:02;8.45;;;2.85;;
18249;SDS011;27980;52.126;5.572;2024-03-25T03:37:27;14.63;;;2.33;;
18249;SDS011;27980;52.126;5.572;2024-03-25T03:39:54;5.18;;;2.05;;
18249;SDS011;27980;52.126;5.572;2024-03-25T03:42:19;16.50;;;3.13;;
18249;SDS011;27980;52.126;5.572;2024-03-25T03:44:45;9.73;;;2.60;;
18249;SDS011;27980;52.126;5.572;2024-03-25T03:47:11;9.68;;;2.80;;
18249;SDS011;27980;52.126;5.572;2024-03-25T03:49:37;8.95;;;3.38;;
18249;SDS011;27980;52.126;5.572;2024-03-25T03:52:04;12.18;;;2.78;;
18249;SDS011;27980;52.126;5.572;2024-03-25T03:54:30;16.52;;;3.22;;
18249;SDS011;27980;52.126;5.572;2024-03-25T03:56:56;12.25;;;3.28;;
18249;SDS011;27980;52.126;5.572;2024-03-25T03:59:22;14.27;;;3.00;;
18249;SDS011;27980;52.126;5.572;2024-03-25T04:01:47;7.78;;;2.85;;
18249;SDS011;27980;52.126;5.572;2024-03-25T04:04:14;6.70;;;3.25;;
18249;SDS011;27980;52.126;5.572;2024-03-25T04:06:39;5.10;;;2.45;;
18249;SDS011;27980;52.126;5.572;2024-03-25T04:09:07;13.50;;;3.80;;
18249;SDS011;27980;52.126;5.572;2024-03-25T04:11:35;6.60;;;2.55;;
18249;SDS011;27980;52.126;5.572;2024-03-25T04:14:01;12.75;;;3.03;;
18249;SDS011;27980;52.126;5.572;2024-03-25T04:16:26;5.40;;;2.42;;
18249;SDS011;27980;52.126;5.572;2024-03-25T04:18:55;9.18;;;3.78;;
18249;SDS011;27980;52.126;5.572;2024-03-25T04:21:21;10.15;;;3.13;;
18249;SDS011;27980;52.126;5.572;2024-03-25T04:23:48;8.68;;;2.83;;
18249;SDS011;27980;52.126;5.572;2024-03-25T04:26:15;11.93;;;2.67;;
18249;SDS011;27980;52.126;5.572;2024-03-25T04:28:41;7.55;;;3.38;;
18249;SDS011;27980;52.126;5.572;2024-03-25T04:31:07;11.63;;;3.13;;
18249;SDS011;27980;52.126;5.572;2024-03-25T04:33:34;21.67;;;3.60;;
18249;SDS011;27980;52.126;5.572;2024-03-25T04:35:59;10.48;;;2.65;;
18249;SDS011;27980;52.126;5.572;2024-03-25T04:38:25;6.15;;;2.28;;
18249;SDS011;27980;52.126;5.572;2024-03-25T04:40:51;6.32;;;3.00;;
18249;SDS011;27980;52.126;5.572;2024-03-25T04:43:18;9.50;;;2.95;;
18249;SDS011;27980;52.126;5.572;2024-03-25T04:45:43;8.88;;;2.88;;
18249;SDS011;27980;52.126;5.572;2024-03-25T04:48:09;11.18;;;2.95;;
18249;SDS011;27980;52.126;5.572;2024-03-25T04:50:34;6.03;;;2.65;;
18249;SDS011;27980;52.126;5.572;2024-03-25T04:53:00;8.60;;;2.72;;
18249;SDS011;27980;52.126;5.572;2024-03-25T04:55:25;8.95;;;2.75;;
18249;SDS011;27980;52.126;5.572;2024-03-25T04:57:51;10.38;;;2.78;;
18249;SDS011;27980;52.126;5.572;2024-03-25T05:00:18;7.15;;;3.35;;
18249;SDS011;27980;52.126;5.572;2024-03-25T05:02:43;4.22;;;2.30;;
18249;SDS011;27980;52.126;5.572;2024-03-25T05:05:09;4.55;;;2.60;;
18249;SDS011;27980;52.126;5.572;2024-03-25T05:07:35;7.13;;;2.60;;
18249;SDS011;27980;52.126;5.572;2024-03-25T05:10:00;7.90;;;2.65;;
18249;SDS011;27980;52.126;5.572;2024-03-25T05:12:25;8.32;;;2.67;;
18249;SDS011;27980;52.126;5.572;2024-03-25T05:14:51;8.10;;;2.88;;
18249;SDS011;27980;52.126;5.572;2024-03-25T05:17:18;7.78;;;2.58;;
18249;SDS011;27980;52.126;5.572;2024-03-25T05:19:43;5.22;;;2.30;;
18249;SDS011;27980;52.126;5.572;2024-03-25T05:22:09;12.88;;;2.63;;
18249;SDS011;27980;52.126;5.572;2024-03-25T05:24:34;5.45;;;2.60;;
18249;SDS011;27980;52.126;5.572;2024-03-25T05:27:00;10.40;;;2.50;;
18249;SDS011;27980;52.126;5.572;2024-03-25T05:29:26;9.52;;;2.97;;
18249;SDS011;27980;52.126;5.572;2024-03-25T05:31:58;12.40;;;2.67;;
18249;SDS011;27980;52.126;5.572;2024-03-25T05:34:25;8.43;;;2.30;;
18249;SDS011;27980;52.126;5.572;2024-03-25T05:36:51;11.30;;;2.33;;
18249;SDS011;27980;52.126;5.572;2024-03-25T05:39:16;12.85;;;2.90;;
18249;SDS011;27980;52.126;5.572;2024-03-25T05:41:42;4.68;;;2.78;;
18249;SDS011;27980;52.126;5.572;2024-03-25T05:44:07;13.05;;;2.83;;
18249;SDS011;27980;52.126;5.572;2024-03-25T05:46:33;14.25;;;3.45;;
18249;SDS011;27980;52.126;5.572;2024-03-25T05:49:00;9.30;;;3.38;;
18249;SDS011;27980;52.126;5.572;2024-03-25T05:51:27;14.45;;;4.25;;
18249;SDS011;27980;52.126;5.572;2024-03-25T05:53:53;9.27;;;2.83;;
18249;SDS011;27980;52.126;5.572;2024-03-25T05:56:18;9.45;;;3.42;;
18249;SDS011;27980;52.126;5.572;2024-03-25T05:58:44;19.73;;;4.10;;
18249;SDS011;27980;52.126;5.572;2024-03-25T06:01:09;15.90;;;4.30;;
18249;SDS011;27980;52.126;5.572;2024-03-25T06:03:35;7.05;;;3.92;;
18249;SDS011;27980;52.126;5.572;2024-03-25T06:06:00;13.07;;;4.05;;
18249;SDS011;27980;52.126;5.572;2024-03-25T06:08:27;12.27;;;3.90;;
18249;SDS011;27980;52.126;5.572;2024-03-25T06:10:53;12.20;;;5.20;;
18249;SDS011;27980;52.126;5.572;2024-03-25T06:13:18;14.25;;;5.30;;
18249;SDS011;27980;52.126;5.572;2024-03-25T06:15:44;8.98;;;4.70;;
18249;SDS011;27980;52.126;5.572;2024-03-25T06:18:10;13.27;;;4.72;;
18249;SDS011;27980;52.126;5.572;2024-03-25T06:20:35;10.98;;;4.60;;
18249;SDS011;27980;52.126;5.572;2024-03-25T06:23:00;13.15;;;5.15;;
18249;SDS011;27980;52.126;5.572;2024-03-25T06:25:28;9.05;;;3.83;;
18249;SDS011;27980;52.126;5.572;2024-03-25T06:27:53;13.20;;;4.45;;
18249;SDS011;27980;52.126;5.572;2024-03-25T06:30:19;9.25;;;4.05;;
18249;SDS011;27980;52.126;5.572;2024-03-25T06:33:03;22.10;;;5.07;;
18249;SDS011;27980;52.126;5.572;2024-03-25T06:35:58;13.15;;;4.38;;
18249;SDS011;27980;52.126;5.572;2024-03-25T06:38:24;14.80;;;4.25;;
18249;SDS011;27980;52.126;5.572;2024-03-25T06:40:50;9.63;;;4.15;;
18249;SDS011;27980;52.126;5.572;2024-03-25T06:43:16;8.88;;;3.90;;
18249;SDS011;27980;52.126;5.572;2024-03-25T06:45:42;13.90;;;4.30;;
18249;SDS011;27980;52.126;5.572;2024-03-25T06:48:07;9.68;;;4.05;;
18249;SDS011;27980;52.126;5.572;2024-03-25T06:50:33;10.55;;;4.63;;
18249;SDS011;27980;52.126;5.572;2024-03-25T06:52:58;14.45;;;4.97;;
18249;SDS011;27980;52.126;5.572;2024-03-25T06:55:23;11.68;;;4.43;;
18249;SDS011;27980;52.126;5.572;2024-03-25T06:57:50;11.80;;;5.07;;
18249;SDS011;27980;52.126;5.572;2024-03-25T07:00:16;12.98;;;4.80;;
18249;SDS011;27980;52.126;5.572;2024-03-25T07:02:41;16.00;;;4.57;;
18249;SDS011;27980;52.126;5.572;2024-03-25T07:05:07;22.23;;;4.75;;
18249;SDS011;27980;52.126;5.572;2024-03-25T07:07:33;18.42;;;5.38;;
18249;SDS011;27980;52.126;5.572;2024-03-25T07:09:59;13.65;;;4.72;;
18249;SDS011;27980;52.126;5.572;2024-03-25T07:12:25;18.75;;;5.55;;
18249;SDS011;27980;52.126;5.572;2024-03-25T07:14:53;13.77;;;4.63;;
18249;SDS011;27980;52.126;5.572;2024-03-25T07:17:19;16.98;;;5.80;;
18249;SDS011;27980;52.126;5.572;2024-03-25T07:19:44;17.27;;;5.60;;
18249;SDS011;27980;52.126;5.572;2024-03-25T07:22:10;16.52;;;6.82;;
18249;SDS011;27980;52.126;5.572;2024-03-25T07:24:35;22.92;;;6.30;;
18249;SDS011;27980;52.126;5.572;2024-03-25T07:27:01;21.77;;;6.60;;
18249;SDS011;27980;52.126;5.572;2024-03-25T07:29:27;12.52;;;5.85;;
18249;SDS011;27980;52.126;5.572;2024-03-25T07:31:54;13.45;;;4.78;;
18249;SDS011;27980;52.126;5.572;2024-03-25T07:34:19;16.52;;;4.80;;
18249;SDS011;27980;52.126;5.572;2024-03-25T07:36:45;13.02;;;4.57;;
18249;SDS011;27980;52.126;5.572;2024-03-25T07:39:10;19.33;;;4.72;;
18249;SDS011;27980;52.126;5.572;2024-03-25T07:41:35;8.88;;;2.97;;
18249;SDS011;27980;52.126;5.572;2024-03-25T07:44:01;9.25;;;3.38;;
18249;SDS011;27980;52.126;5.572;2024-03-25T07:46:27;9.55;;;3.17;;
18249;SDS011;27980;52.126;5.572;2024-03-25T07:48:54;10.30;;;3.10;;
18249;SDS011;27980;52.126;5.572;2024-03-25T07:51:19;11.93;;;3.30;;
18249;SDS011;27980;52.126;5.572;2024-03-25T07:53:45;9.15;;;3.13;;
18249;SDS011;27980;52.126;5.572;2024-03-25T07:56:10;13.63;;;2.95;;
18249;SDS011;27980;52.126;5.572;2024-03-25T07:58:36;7.07;;;2.65;;
18249;SDS011;27980;52.126;5.572;2024-03-25T08:01:01;6.97;;;2.50;;
18249;SDS011;27980;52.126;5.572;2024-03-25T08:03:27;11.57;;;3.60;;
18249;SDS011;27980;52.126;5.572;2024-03-25T08:05:54;8.57;;;2.85;;
18249;SDS011;27980;52.126;5.572;2024-03-25T08:08:19;11.45;;;2.67;;
18249;SDS011;27980;52.126;5.572;2024-03-25T08:10:45;12.27;;;2.63;;
18249;SDS011;27980;52.126;5.572;2024-03-25T08:13:10;8.30;;;3.08;;
18249;SDS011;27980;52.126;5.572;2024-03-25T08:15:36;8.88;;;2.63;;
18249;SDS011;27980;52.126;5.572;2024-03-25T08:18:01;7.47;;;2.35;;
18249;SDS011;27980;52.126;5.572;2024-03-25T08:20:27;10.88;;;3.17;;
18249;SDS011;27980;52.126;5.572;2024-03-25T08:22:54;3.78;;;2.00;;
18249;SDS011;27980;52.126;5.572;2024-03-25T08:25:19;9.60;;;3.10;;
18249;SDS011;27980;52.126;5.572;2024-03-25T08:27:45;6.60;;;2.20;;
18249;SDS011;27980;52.126;5.572;2024-03-25T08:30:10;10.32;;;2.88;;
18249;SDS011;27980;52.126;5.572;2024-03-25T08:32:36;6.53;;;1.73;;
18249;SDS011;27980;52.126;5.572;2024-03-25T08:35:02;8.05;;;2.25;;
18249;SDS011;27980;52.126;5.572;2024-03-25T08:37:27;8.65;;;2.45;;
18249;SDS011;27980;52.126;5.572;2024-03-25T08:39:54;8.25;;;2.13;;
18249;SDS011;27980;52.126;5.572;2024-03-25T08:42:20;7.45;;;1.88;;
18249;SDS011;27980;52.126;5.572;2024-03-25T08:44:46;6.10;;;1.90;;
18249;SDS011;27980;52.126;5.572;2024-03-25T08:47:11;6.45;;;1.58;;
18249;SDS011;27980;52.126;5.572;2024-03-25T08:49:37;7.20;;;1.95;;
18249;SDS011;27980;52.126;5.572;2024-03-25T08:52:02;3.40;;;1.42;;
18249;SDS011;27980;52.126;5.572;2024-03-25T08:54:28;3.63;;;1.50;;
18249;SDS011;27980;52.126;5.572;2024-03-25T08:56:55;5.22;;;1.20;;
18249;SDS011;27980;52.126;5.572;2024-03-25T08:59:20;5.20;;;1.58;;
18249;SDS011;27980;52.126;5.572;2024-03-25T09:01:45;4.53;;;1.38;;
18249;SDS011;27980;52.126;5.572;2024-03-25T09:04:12;5.88;;;2.00;;
18249;SDS011;27980;52.126;5.572;2024-03-25T09:06:37;8.07;;;2.13;;
18249;SDS011;27980;52.126;5.572;2024-03-25T09:09:03;7.00;;;1.58;;
18249;SDS011;27980;52.126;5.572;2024-03-25T09:11:47;5.60;;;2.03;;
18249;SDS011;27980;52.126;5.572;2024-03-25T09:14:15;4.95;;;1.50;;
18249;SDS011;27980;52.126;5.572;2024-03-25T09:16:40;5.32;;;1.23;;
18249;SDS011;27980;52.126;5.572;2024-03-25T09:19:05;4.88;;;1.25;;
18249;SDS011;27980;52.126;5.572;2024-03-25T09:21:31;4.55;;;1.42;;
18249;SDS011;27980;52.126;5.572;2024-03-25T09:23:56;5.28;;;1.77;;
18249;SDS011;27980;52.126;5.572;2024-03-25T09:26:22;4.85;;;1.50;;
18249;SDS011;27980;52.126;5.572;2024-03-25T09:28:47;4.40;;;1.50;;
18249;SDS011;27980;52.126;5.572;2024-03-25T09:31:14;4.97;;;1.52;;
18249;SDS011;27980;52.126;5.572;2024-03-25T09:33:40;8.00;;;2.00;;
18249;SDS011;27980;52.126;5.572;2024-03-25T09:36:05;7.40;;;2.00;;
18249;SDS011;27980;52.126;5.572;2024-03-25T09:38:31;6.32;;;1.88;;
18249;SDS011;27980;52.126;5.572;2024-03-25T09:40:56;9.60;;;1.98;;
18249;SDS011;27980;52.126;5.572;2024-03-25T09:43:23;7.03;;;1.67;;
18249;SDS011;27980;52.126;5.572;2024-03-25T09:45:49;9.70;;;2.00;;
18249;SDS011;27980;52.126;5.572;2024-03-25T09:48:16;4.70;;;1.67;;
18249;SDS011;27980;52.126;5.572;2024-03-25T09:50:41;8.88;;;2.10;;
18249;SDS011;27980;52.126;5.572;2024-03-25T09:53:08;5.35;;;1.90;;
18249;SDS011;27980;52.126;5.572;2024-03-25T09:55:34;5.45;;;1.80;;
18249;SDS011;27980;52.126;5.572;2024-03-25T09:57:59;7.07;;;2.40;;
18249;SDS011;27980;52.126;5.572;2024-03-25T10:00:25;5.53;;;2.10;;
18249;SDS011;27980;52.126;5.572;2024-03-25T10:02:51;9.82;;;2.42;;
18249;SDS011;27980;52.126;5.572;2024-03-25T10:05:18;7.05;;;1.92;;
18249;SDS011;27980;52.126;5.572;2024-03-25T10:07:44;5.55;;;2.42;;
18249;SDS011;27980;52.126;5.572;2024-03-25T10:10:09;9.43;;;2.22;;
18249;SDS011;27980;52.126;5.572;2024-03-25T10:12:35;7.70;;;1.83;;
18249;SDS011;27980;52.126;5.572;2024-03-25T10:15:01;8.20;;;2.83;;
18249;SDS011;27980;52.126;5.572;2024-03-25T10:17:27;7.50;;;2.00;;
18249;SDS011;27980;52.126;5.572;2024-03-25T10:19:53;8.77;;;2.20;;
18249;SDS011;27980;52.126;5.572;2024-03-25T10:22:21;8.25;;;2.50;;
18249;SDS011;27980;52.126;5.572;2024-03-25T10:24:47;8.98;;;2.70;;
18249;SDS011;27980;52.126;5.572;2024-03-25T10:27:17;8.27;;;2.70;;
18249;SDS011;27980;52.126;5.572;2024-03-25T10:29:42;8.90;;;2.70;;
18249;SDS011;27980;52.126;5.572;2024-03-25T10:32:08;7.75;;;2.53;;
18249;SDS011;27980;52.126;5.572;2024-03-25T10:34:34;12.93;;;2.60;;
18249;SDS011;27980;52.126;5.572;2024-03-25T10:36:59;9.13;;;2.42;;
18249;SDS011;27980;52.126;5.572;2024-03-25T10:39:27;8.55;;;2.28;;
18249;SDS011;27980;52.126;5.572;2024-03-25T10:41:56;10.80;;;2.08;;
18249;SDS011;27980;52.126;5.572;2024-03-25T10:44:22;6.55;;;2.38;;
18249;SDS011;27980;52.126;5.572;2024-03-25T10:46:48;8.60;;;2.90;;
18249;SDS011;27980;52.126;5.572;2024-03-25T10:49:16;7.97;;;2.30;;
18249;SDS011;27980;52.126;5.572;2024-03-25T10:51:43;5.75;;;2.13;;
18249;SDS011;27980;52.126;5.572;2024-03-25T10:54:09;6.82;;;1.92;;
18249;SDS011;27980;52.126;5.572;2024-03-25T10:56:37;5.00;;;2.17;;
18249;SDS011;27980;52.126;5.572;2024-03-25T10:59:02;4.15;;;1.65;;
18249;SDS011;27980;52.126;5.572;2024-03-25T11:01:28;5.55;;;2.17;;
18249;SDS011;27980;52.126;5.572;2024-03-25T11:03:54;6.97;;;2.53;;
18249;SDS011;27980;52.126;5.572;2024-03-25T11:06:20;6.10;;;1.80;;
18249;SDS011;27980;52.126;5.572;2024-03-25T11:08:55;5.70;;;2.05;;
18249;SDS011;27980;52.126;5.572;2024-03-25T11:11:20;4.72;;;1.73;;
18249;SDS011;27980;52.126;5.572;2024-03-25T11:13:47;6.07;;;1.98;;
18249;SDS011;27980;52.126;5.572;2024-03-25T11:16:13;7.78;;;2.17;;
18249;SDS011;27980;52.126;5.572;2024-03-25T11:18:38;6.80;;;2.13;;
18249;SDS011;27980;52.126;5.572;2024-03-25T11:21:04;8.13;;;2.03;;
18249;SDS011;27980;52.126;5.572;2024-03-25T11:23:35;5.55;;;2.00;;
18249;SDS011;27980;52.126;5.572;2024-03-25T11:26:00;7.93;;;1.80;;
18249;SDS011;27980;52.126;5.572;2024-03-25T11:28:26;3.95;;;1.80;;
18249;SDS011;27980;52.126;5.572;2024-03-25T11:30:53;6.50;;;2.28;;
18249;SDS011;27980;52.126;5.572;2024-03-25T11:33:19;5.97;;;1.88;;
18249;SDS011;27980;52.126;5.572;2024-03-25T11:35:44;4.20;;;1.80;;
18249;SDS011;27980;52.126;5.572;2024-03-25T11:38:10;5.38;;;1.80;;
18249;SDS011;27980;52.126;5.572;2024-03-25T11:40:35;6.00;;;2.38;;
18249;SDS011;27980;52.126;5.572;2024-03-25T11:43:01;7.05;;;2.13;;
18249;SDS011;27980;52.126;5.572;2024-03-25T11:45:26;8.30;;;2.45;;
18249;SDS011;27980;52.126;5.572;2024-03-25T11:47:54;5.22;;;2.00;;
18249;SDS011;27980;52.126;5.572;2024-03-25T11:50:20;2.90;;;1.92;;
18249;SDS011;27980;52.126;5.572;2024-03-25T11:52:47;6.07;;;2.22;;
18249;SDS011;27980;52.126;5.572;2024-03-25T11:55:16;4.95;;;2.08;;
18249;SDS011;27980;52.126;5.572;2024-03-25T11:57:41;5.78;;;2.22;;
18249;SDS011;27980;52.126;5.572;2024-03-25T12:00:07;8.40;;;2.58;;
18249;SDS011;27980;52.126;5.572;2024-03-25T12:02:33;6.05;;;2.35;;
18249;SDS011;27980;52.126;5.572;2024-03-25T12:05:00;6.40;;;2.50;;
18249;SDS011;27980;52.126;5.572;2024-03-25T12:07:26;7.15;;;2.30;;
18249;SDS011;27980;52.126;5.572;2024-03-25T12:09:51;4.63;;;2.17;;
18249;SDS011;27980;52.126;5.572;2024-03-25T12:12:35;5.78;;;2.67;;
18249;SDS011;27980;52.126;5.572;2024-03-25T12:15:01;5.40;;;2.33;;
18249;SDS011;27980;52.126;5.572;2024-03-25T12:17:27;11.15;;;2.40;;
18249;SDS011;27980;52.126;5.572;2024-03-25T12:20:02;5.47;;;2.58;;
18249;SDS011;27980;52.126;5.572;2024-03-25T12:22:32;6.72;;;2.20;;
18249;SDS011;27980;52.126;5.572;2024-03-25T12:24:58;8.27;;;2.50;;
18249;SDS011;27980;52.126;5.572;2024-03-25T12:27:24;5.20;;;2.75;;
18249;SDS011;27980;52.126;5.572;2024-03-25T12:29:56;7.13;;;2.17;;
18249;SDS011;27980;52.126;5.572;2024-03-25T12:32:22;4.93;;;2.58;;
18249;SDS011;27980;52.126;5.572;2024-03-25T12:34:55;8.43;;;2.60;;
18249;SDS011;27980;52.126;5.572;2024-03-25T12:37:22;5.60;;;2.40;;
18249;SDS011;27980;52.126;5.572;2024-03-25T12:39:48;4.47;;;2.40;;
18249;SDS011;27980;52.126;5.572;2024-03-25T12:42:13;7.97;;;2.30;;
18249;SDS011;27980;52.126;5.572;2024-03-25T12:44:39;4.90;;;2.20;;
18249;SDS011;27980;52.126;5.572;2024-03-25T12:47:04;5.30;;;2.40;;
18249;SDS011;27980;52.126;5.572;2024-03-25T12:49:30;8.93;;;2.47;;
18249;SDS011;27980;52.126;5.572;2024-03-25T12:51:57;4.40;;;2.17;;
18249;SDS011;27980;52.126;5.572;2024-03-25T12:54:23;4.88;;;2.30;;
18249;SDS011;27980;52.126;5.572;2024-03-25T12:56:49;5.70;;;2.50;;
18249;SDS011;27980;52.126;5.572;2024-03-25T12:59:14;5.65;;;2.65;;
18249;SDS011;27980;52.126;5.572;2024-03-25T13:01:40;5.97;;;2.17;;
18249;SDS011;27980;52.126;5.572;2024-03-25T13:04:06;3.75;;;1.85;;
18249;SDS011;27980;52.126;5.572;2024-03-25T13:06:31;4.40;;;2.00;;
18249;SDS011;27980;52.126;5.572;2024-03-25T13:08:59;5.25;;;2.20;;
18249;SDS011;27980;52.126;5.572;2024-03-25T13:11:26;3.63;;;1.67;;
18249;SDS011;27980;52.126;5.572;2024-03-25T13:13:51;5.35;;;2.05;;
18249;SDS011;27980;52.126;5.572;2024-03-25T13:16:17;3.95;;;2.35;;
18249;SDS011;27980;52.126;5.572;2024-03-25T13:18:42;3.97;;;1.80;;
18249;SDS011;27980;52.126;5.572;2024-03-25T13:21:08;6.28;;;2.30;;
18249;SDS011;27980;52.126;5.572;2024-03-25T13:23:33;3.55;;;1.70;;
18249;SDS011;27980;52.126;5.572;2024-03-25T13:25:59;5.88;;;3.75;;
18249;SDS011;27980;52.126;5.572;2024-03-25T13:28:26;4.93;;;1.90;;
18249;SDS011;27980;52.126;5.572;2024-03-25T13:30:52;5.05;;;1.90;;
18249;SDS011;27980;52.126;5.572;2024-03-25T13:33:17;4.28;;;1.80;;
18249;SDS011;27980;52.126;5.572;2024-03-25T13:35:43;5.47;;;1.90;;
18249;SDS011;27980;52.126;5.572;2024-03-25T13:38:08;3.15;;;1.90;;
18249;SDS011;27980;52.126;5.572;2024-03-25T13:40:34;4.43;;;2.10;;
18249;SDS011;27980;52.126;5.572;2024-03-25T13:42:59;2.50;;;1.60;;
18249;SDS011;27980;52.126;5.572;2024-03-25T13:45:26;4.95;;;2.20;;
18249;SDS011;27980;52.126;5.572;2024-03-25T13:47:51;2.40;;;2.00;;
18249;SDS011;27980;52.126;5.572;2024-03-25T13:50:17;5.13;;;1.70;;
18249;SDS011;27980;52.126;5.572;2024-03-25T13:52:42;6.53;;;1.98;;
18249;SDS011;27980;52.126;5.572;2024-03-25T13:55:08;3.50;;;2.10;;
18249;SDS011;27980;52.126;5.572;2024-03-25T13:57:33;5.80;;;2.17;;
18249;SDS011;27980;52.126;5.572;2024-03-25T13:59:59;4.60;;;2.10;;
18249;SDS011;27980;52.126;5.572;2024-03-25T14:02:26;4.82;;;2.38;;
18249;SDS011;27980;52.126;5.572;2024-03-25T14:04:51;5.97;;;2.05;;
18249;SDS011;27980;52.126;5.572;2024-03-25T14:07:16;3.15;;;1.88;;
18249;SDS011;27980;52.126;5.572;2024-03-25T14:09:42;6.47;;;1.92;;
18249;SDS011;27980;52.126;5.572;2024-03-25T14:12:08;3.50;;;1.90;;
18249;SDS011;27980;52.126;5.572;2024-03-25T14:14:33;4.80;;;2.15;;
18249;SDS011;27980;52.126;5.572;2024-03-25T14:16:58;4.28;;;2.17;;
18249;SDS011;27980;52.126;5.572;2024-03-25T14:19:25;3.40;;;1.77;;
18249;SDS011;27980;52.126;5.572;2024-03-25T14:21:51;4.68;;;2.03;;
18249;SDS011;27980;52.126;5.572;2024-03-25T14:24:16;3.90;;;2.13;;
18249;SDS011;27980;52.126;5.572;2024-03-25T14:26:42;3.40;;;2.03;;
18249;SDS011;27980;52.126;5.572;2024-03-25T14:29:08;4.32;;;1.67;;
18249;SDS011;27980;52.126;5.572;2024-03-25T14:31:33;2.25;;;1.58;;
18249;SDS011;27980;52.126;5.572;2024-03-25T14:33:58;5.15;;;1.77;;
18249;SDS011;27980;52.126;5.572;2024-03-25T14:36:25;6.28;;;1.95;;